• Join FlightAware (Why Join?)
  • Login
  • US Flag 
10:37PM EDT


 

Airport Tracker/Info


-or-


 

Live Flight TrackerFlight Track Log ✈ DLH572 ✈ 07-May-2013 ✈ EDDF / FRA - FAOR / JNB

Flight Track Log - Related Links

Times and Time Zones

All times are in EDT time to prevent confusion due to time zone crossing. See the DLH572 flight status page for this flight to view local times or setup timezone preferences in your user account.

Time Position Orientation Groundspeed Altitude Reporting Facility
EDT Latitude Longitude Course Direction KTS MPH feet Rate Location/Type
04:42PM 49.9900 8.5260 180° South 170 196 800  Level FlightAware
04:43PM 49.9690 8.5270 178° South 170 196 1,400 1,260 Climbing FlightAware
04:43PM 49.9500 8.5290 176° South 166 191 2,000 1,200 Climbing FlightAware
04:44PM 49.9050 8.5320 178° South 227 261 2,600 1,080 Climbing FlightAware
04:45PM 49.8720 8.5350 177° South 255 293 3,300 1,680 Climbing FlightAware
04:45PM 49.8540 8.5360 178° South 258 297 3,900 2,400 Climbing FlightAware
04:45PM 49.8250 8.5380 177° South 259 298 4,900 2,460 Climbing FlightAware
04:46PM 49.7880 8.5400 178° South 262 302 6,200 2,580 Climbing FlightAware
04:46PM 49.7580 8.5380 182° South 261 300 7,300 2,400 Climbing FlightAware
04:47PM 49.7200 8.5330 185° South 260 299 8,400 2,220 Climbing FlightAware
04:47PM 49.7020 8.5310 184° South 261 300 9,000 2,400 Climbing FlightAware
04:47PM 49.6720 8.5260 186° South 261 300 10,000 1,440 Climbing FlightAware
04:48PM 49.6120 8.5190 184° South 310 357 10,700 780 Climbing FlightAware
04:49PM 49.5620 8.5120 185° South 340 391 11,100 1,320 Climbing FlightAware
04:49PM 49.4840 8.5020 185° South 358 412 12,500 1,860 Climbing FlightAware
04:51PM 49.3070 8.4830 184° South 370 426 15,800 1,680 Climbing FlightAware
04:54PM 49.0237 8.6243 162° South  Level Estimated
04:54PM 49.0170 8.4760 162° South 399 459 20,000  Level FlightAware
04:55PM 48.9290 8.4730 181° South 403 464 21,200 1,440 Climbing FlightAware
04:55PM 48.8540 8.4710 181° South 415 478 22,100 1,380 Climbing FlightAware
04:56PM 48.7710 8.4680 181° South 415 478 23,200 1,320 Climbing FlightAware
04:57PM 48.6910 8.4660 181° South 421 484 24,000 1,200 Climbing FlightAware
04:57PM 48.6130 8.4640 181° South 417 480 24,800 1,200 Climbing FlightAware
04:58PM 48.5250 8.4610 181° South 420 483 25,700 1,020 Climbing FlightAware
04:59PM 48.4450 8.4580 181° South 434 499 26,300 900 Climbing FlightAware
04:59PM 48.3540 8.4560 181° South 433 498 27,000 840 Climbing FlightAware
05:00PM 48.2770 8.4530 181° South 436 502 27,500 960 Climbing FlightAware
05:01PM 48.1880 8.4510 181° South 437 503 28,300 1,020 Climbing FlightAware
05:02PM 48.0960 8.4480 181° South 453 521 29,000 960 Climbing FlightAware
05:02PM 48.0250 8.4460 181° South 449 517 29,600 1,080 Climbing FlightAware
05:03PM 47.9270 8.4430 181° South 453 521 30,500 1,020 Climbing FlightAware
05:04PM 47.8310 8.4400 181° South 468 539 31,200 660 Climbing FlightAware
05:06PM 47.6073 8.5494 162° South  Level Estimated
05:06PM 47.4610 8.4700 162° South 498 573 33,000  Level FlightAware
05:07PM 47.4885 8.6072 162° South  Level Estimated
05:07PM 47.3340 8.4890 174° South 503 579 33,700  Level FlightAware
05:08PM 47.2270 8.5040 175° South 499 574 34,200 840 Climbing FlightAware
05:09PM 47.1350 8.5180 174° South 497 572 34,900 540 Climbing FlightAware
05:09PM 47.0330 8.5320 175° South 499 574 35,000 60 Climbing FlightAware
05:10PM 46.9420 8.5460 174° South 501 577 35,000  Level FlightAware
05:11PM 46.8400 8.5600 175° South 502 578 35,000  Level FlightAware
05:12PM 46.7450 8.5740 174° South 501 577 35,000  Level FlightAware
05:12PM 46.6520 8.5870 175° South 501 577 35,000  Level FlightAware
05:13PM 46.5510 8.6030 174° South 503 579 35,000  Level FlightAware
05:14PM 46.4610 8.6460 162° South 508 585 35,000  Level FlightAware
05:14PM 46.3590 8.6970 161° South 507 583 35,000  Level FlightAware
05:15PM 46.2720 8.7400 161° South 506 582 35,000  Level FlightAware
05:16PM 46.1820 8.7860 161° South 509 586 35,000  Level FlightAware
05:16PM 46.0840 8.8350 161° South 512 589 35,000  Level FlightAware
05:17PM 45.9990 8.8760 161° South 514 592 35,000  Level FlightAware
05:18PM 45.8950 8.9270 161° South 517 595 35,000  Level FlightAware
05:18PM 45.8200 8.9640 161° South 516 594 35,000  Level FlightAware
05:19PM 45.7160 9.0150 161° South 517 595 35,000  Level FlightAware
05:20PM 45.6150 9.0640 161° South 517 595 35,000  Level FlightAware
05:21PM 45.5220 9.1090 161° South 516 594 35,000  Level FlightAware
05:21PM 45.4210 9.1580 161° South 519 597 35,000  Level FlightAware
05:22PM 45.3320 9.2010 161° South 521 600 35,000  Level FlightAware
05:23PM 45.2400 9.2450 161° South 521 600 35,000  Level FlightAware
05:23PM 45.1370 9.2950 161° South 521 600 35,000  Level FlightAware
05:24PM 45.0440 9.3390 162° South 522 601 35,000  Level FlightAware
05:25PM 44.9430 9.3870 161° South 523 602 35,000  Level FlightAware
05:26PM 44.8490 9.4310 162° South 527 606 35,000  Level FlightAware
05:26PM 44.7570 9.4750 161° South 529 609 35,000  Level FlightAware
05:27PM 44.6550 9.5230 161° South 528 608 35,000  Level FlightAware
05:28PM 44.5620 9.5660 162° South 529 609 35,000  Level FlightAware
05:28PM 44.4670 9.6110 161° South 533 613 35,000  Level FlightAware
05:29PM 44.3620 9.6600 162° South 536 617 35,000  Level FlightAware
05:30PM 44.2680 9.7030 162° South 537 618 35,000  Level FlightAware
05:32PM 44.0532 9.7968 163° South  Level Estimated
05:33PM 43.9339 9.8486 163° South  Level Estimated
05:34PM 43.8145 9.9002 163° South  Level Estimated
05:35PM 43.6951 9.9516 163° South  Level Estimated
05:36PM 43.5757 10.0028 163° South  Level Estimated
05:37PM 43.4563 10.0537 163° South  Level Estimated
05:38PM 43.3368 10.1045 163° South  Level Estimated
05:39PM 43.2173 10.1551 163° South  Level Estimated
05:40PM 43.0978 10.2055 163° South  Level Estimated
05:41PM 42.9783 10.2557 163° South  Level Estimated
05:41PM 42.6590 10.1190 163° South 537 618 35,000  Level FlightAware
05:42PM 42.5620 10.1360 173° South 538 619 35,000  Level FlightAware
05:42PM 42.4660 10.1530 173° South 537 618 35,000  Level FlightAware
05:43PM 42.3570 10.1720 173° South 536 617 35,000  Level FlightAware
05:44PM 42.2380 10.1930 173° South 539 620 35,000  Level FlightAware
05:44PM 42.1130 10.2150 173° South 532 612 35,000  Level FlightAware
05:45PM 42.0140 10.2320 173° South 531 611 35,000  Level FlightAware
05:46PM 41.9010 10.2520 172° South 537 618 35,000  Level FlightAware
05:48PM 41.7058 10.3327 163° South  Level Estimated
05:49PM 41.5863 10.3819 163° South  Level Estimated
05:50PM 41.4668 10.4309 163° South  Level Estimated
05:50PM 41.3920 10.3110 163° South 534 615 35,000  Level FlightAware
05:51PM 41.0840 10.3400 163° South 532 612 35,000  Level FlightAware
05:52PM 41.1570 10.4074 163° South  Level Estimated
05:53PM 40.8050 10.3660 163° South 532 612 35,000  Level FlightAware
05:54PM 40.8391 10.4400 163° South  Level Estimated
05:54PM 40.6920 10.3770 176° South 531 611 35,000  Level FlightAware
05:55PM 40.5510 10.3900 176° South 533 613 35,000  Level FlightAware
05:56PM 40.4500 10.3990 176° South 531 611 35,000  Level FlightAware
05:57PM 40.2260 10.4200 176° South 519 597 35,000  Level FlightAware
05:58PM 40.1150 10.4300 176° South 530 610 35,000  Level FlightAware
05:59PM 40.0180 10.4390 176° South 531 611 35,000  Level FlightAware
05:59PM 39.9190 10.4480 176° South 530 610 35,000  Level FlightAware
06:00PM 39.8090 10.4580 176° South 529 609 35,000  Level FlightAware
06:01PM 39.7100 10.4670 176° South 528 608 35,000  Level FlightAware
06:02PM 39.6020 10.4770 176° South 529 609 35,000  Level FlightAware
06:02PM 39.5050 10.4860 176° South 529 609 35,000  Level FlightAware
06:03PM 39.4060 10.4950 176° South 531 611 35,000  Level FlightAware
06:03PM 39.3340 10.5010 176° South 532 612 35,000  Level FlightAware
06:04PM 39.2340 10.5100 176° South 532 612 35,000  Level FlightAware
06:05PM 39.1240 10.5200 176° South 531 611 35,000  Level FlightAware
06:05PM 39.0250 10.5290 176° South 530 610 35,000  Level FlightAware
06:06PM 38.9140 10.5390 176° South 528 608 35,000  Level FlightAware
06:07PM 38.8170 10.5470 176° South 530 610 35,000  Level FlightAware
06:08PM 38.7170 10.5560 176° South 530 610 35,000  Level FlightAware
06:08PM 38.6060 10.5660 176° South 530 610 35,000  Level FlightAware
06:09PM 38.5060 10.5750 176° South 529 609 35,000  Level FlightAware
06:10PM 38.4110 10.5830 176° South 528 608 35,000  Level FlightAware
06:10PM 38.3000 10.5930 176° South 528 608 35,000  Level FlightAware
06:11PM 38.2030 10.6010 176° South 529 609 35,000  Level FlightAware
06:12PM 38.0910 10.6090 177° South 529 609 35,000  Level FlightAware
06:12PM 37.9920 10.6150 177° South 530 610 35,000  Level FlightAware
06:13PM 37.8800 10.6210 178° South 531 611 35,000  Level FlightAware
06:14PM 37.7830 10.6270 177° South 530 610 35,000  Level FlightAware
06:15PM 37.6750 10.6340 177° South 529 609 35,000  Level FlightAware
06:15PM 37.5760 10.6400 177° South 527 606 35,000  Level FlightAware
06:16PM 37.4780 10.6460 177° South 528 608 35,000  Level FlightAware
06:17PM 37.3690 10.6520 177° South 530 610 35,000  Level FlightAware
06:17PM 37.2800 10.6580 177° South 530 610 35,000  Level FlightAware
06:18PM 37.1560 10.6650 177° South 531 611 35,000  Level FlightAware
06:19PM 37.0590 10.6710 177° South 530 610 35,000  Level FlightAware
06:19PM 36.9610 10.6770 177° South 529 609 35,000  Level FlightAware
06:20PM 36.8520 10.6840 177° South 528 608 35,000  Level FlightAware
06:21PM 36.7540 10.6890 178° South 529 609 35,000  Level FlightAware
06:22PM 36.6460 10.6960 177° South 530 610 35,000  Level FlightAware
06:22PM 36.5570 10.7010 177° South 532 612 35,000  Level FlightAware
06:23PM 36.4490 10.7070 177° South 531 611 35,000  Level FlightAware
06:24PM 36.3340 10.7140 177° South 529 609 35,000  Level FlightAware
06:24PM 36.2390 10.7200 177° South 530 610 35,000  Level FlightAware
06:25PM 36.1300 10.7260 177° South 532 612 35,000  Level FlightAware
06:26PM 36.0300 10.7320 177° South 533 613 35,000  Level FlightAware
06:26PM 35.9320 10.7380 177° South 533 613 35,000  Level FlightAware
06:27PM 35.8180 10.7440 178° South 533 613 35,000  Level FlightAware
06:28PM 35.7230 10.7500 177° South 533 613 35,000  Level FlightAware
06:29PM 35.6110 10.7560 178° South 534 615 35,000  Level FlightAware
06:29PM 35.5090 10.7620 177° South 535 616 35,000  Level FlightAware
06:30PM 35.4120 10.7680 177° South 536 617 35,000  Level FlightAware
06:31PM 35.3010 10.7740 177° South 537 618 35,000  Level FlightAware
06:31PM 35.2020 10.7800 177° South 538 619 35,000  Level FlightAware
06:32PM 35.1020 10.7860 177° South 540 621 35,000  Level FlightAware
06:33PM 35.0020 10.7910 178° South 541 623 35,000  Level FlightAware
06:33PM 34.8880 10.7980 177° South 540 621 35,000  Level FlightAware
06:34PM 34.7760 10.8040 177° South 539 620 35,000  Level FlightAware
06:35PM 34.6770 10.8100 177° South 538 619 35,000  Level FlightAware
06:36PM 34.5680 10.8160 177° South 535 616 35,000  Level FlightAware
06:36PM 34.4640 10.8220 177° South 533 613 35,000  Level FlightAware
06:37PM 34.3750 10.8270 177° South 533 613 35,000  Level FlightAware
06:38PM 34.2570 10.8330 178° South 531 611 35,000  Level FlightAware
06:38PM 34.1700 10.8380 177° South 527 606 35,000  Level FlightAware
06:39PM 34.0480 10.8450 177° South 525 604 35,000  Level FlightAware
06:40PM 33.9560 10.8500 177° South 523 602 35,000  Level FlightAware
06:40PM 33.8570 10.8560 177° South 522 601 35,000  Level FlightAware
06:41PM 33.7450 10.8620 177° South 523 602 35,000  Level FlightAware
06:42PM 33.6230 10.8690 177° South 523 602 35,000  Level FlightAware
06:43PM 33.5410 10.8740 177° South 523 602 35,000  Level FlightAware
06:43PM 33.4580 10.8790 177° South 523 602 35,000  Level FlightAware
06:44PM 33.3760 10.8850 177° South 523 602 35,000  Level FlightAware
06:45PM 33.2050 10.8910 178° South 521 600 35,000  Level FlightAware
06:46PM 33.1290 10.8960 177° South 521 600 35,000  Level FlightAware
06:46PM 33.0470 10.9010 177° South 521 600 35,000  Level FlightAware
06:47PM 32.9060 10.9080 178° South 522 601 35,000  Level FlightAware
06:48PM 32.7860 10.9150 177° South 522 601 35,000  Level FlightAware
06:49PM 32.7040 10.9200 177° South 522 601 35,000  Level FlightAware
06:49PM 32.6220 10.9250 177° South 522 601 35,000  Level FlightAware
06:50PM 32.5200 10.9310 177° South 522 601 35,000  Level FlightAware
06:51PM 32.4380 10.9360 177° South 522 601 35,000  Level FlightAware
06:51PM 32.3560 10.9410 177° South 522 601 35,000  Level FlightAware
06:52PM 32.2740 10.9460 177° South 522 601 35,000  Level FlightAware
06:53PM 32.1710 10.9530 177° South 522 601 35,000  Level FlightAware
06:54PM 32.0890 10.9580 177° South 522 601 35,000  Level FlightAware
06:54PM 32.0070 10.9630 177° South 522 601 35,000  Level FlightAware
06:55PM 31.9250 10.9680 177° South 522 601 35,000  Level FlightAware
06:56PM 31.8430 10.9730 177° South 522 601 35,000  Level FlightAware
06:56PM 31.7410 10.9790 177° South 522 601 35,000  Level FlightAware
06:57PM 31.6590 10.9840 177° South 522 601 35,000  Level FlightAware
07:00PM 31.3577 11.0979 162° South  Level Estimated
07:01PM 31.2356 11.1439 162° South  Level Estimated
07:02PM 31.1134 11.1897 162° South  Level Estimated
07:03PM 30.9912 11.2354 162° South  Level Estimated
07:04PM 30.8690 11.2811 162° South  Level Estimated
07:05PM 30.7468 11.3266 162° South  Level Estimated
07:06PM 30.6246 11.3719 162° South  Level Estimated
07:07PM 30.5023 11.4172 162° South  Level Estimated
07:08PM 30.3801 11.4624 162° South  Level Estimated
07:09PM 30.2578 11.5074 162° South  Level Estimated
07:10PM 30.1355 11.5523 162° South  Level Estimated
07:11PM 30.0132 11.5971 162° South  Level Estimated
07:12PM 29.8908 11.6419 162° South  Level Estimated
07:13PM 29.7685 11.6865 162° South  Level Estimated
07:14PM 29.6461 11.7310 162° South  Level Estimated
07:15PM 29.5238 11.7753 162° South  Level Estimated
07:16PM 29.4014 11.8196 163° South  Level Estimated
07:17PM 29.2790 11.8638 163° South  Level Estimated
07:18PM 29.1565 11.9078 163° South  Level Estimated
07:19PM 29.0341 11.9518 163° South  Level Estimated
07:20PM 28.9117 11.9956 163° South  Level Estimated
07:21PM 28.7892 12.0394 163° South  Level Estimated
07:22PM 28.6667 12.0830 163° South  Level Estimated
07:23PM 28.5443 12.1266 163° South  Level Estimated
07:24PM 28.4217 12.1700 163° South  Level Estimated
07:25PM 28.2992 12.2134 163° South  Level Estimated
07:26PM 28.1767 12.2566 163° South  Level Estimated
07:27PM 28.0542 12.2997 163° South  Level Estimated
07:28PM 27.9316 12.3428 163° South  Level Estimated
07:29PM 27.8090 12.3857 163° South  Level Estimated
07:30PM 27.6864 12.4286 163° South  Level Estimated
07:31PM 27.5639 12.4713 163° South  Level Estimated
07:32PM 27.4412 12.5140 163° South  Level Estimated
07:33PM 27.3186 12.5566 163° South  Level Estimated
07:34PM 27.1960 12.5990 163° South  Level Estimated
07:35PM 27.0733 12.6414 163° South  Level Estimated
07:36PM 26.9507 12.6837 163° South  Level Estimated
07:37PM 26.8280 12.7259 163° South  Level Estimated
07:38PM 26.7053 12.7680 163° South  Level Estimated
07:39PM 26.5826 12.8100 163° South  Level Estimated
07:40PM 26.4599 12.8519 163° South  Level Estimated
07:41PM 26.3372 12.8938 163° South  Level Estimated
07:42PM 26.2145 12.9355 163° South  Level Estimated
07:43PM 26.0917 12.9772 163° South  Level Estimated
07:44PM 25.9690 13.0187 163° South  Level Estimated
07:45PM 25.8462 13.0602 163° South  Level Estimated
07:46PM 25.7234 13.1016 163° South  Level Estimated
07:47PM 25.6006 13.1429 163° South  Level Estimated
07:48PM 25.4778 13.1842 163° South  Level Estimated
07:49PM 25.3550 13.2253 163° South  Level Estimated
07:50PM 25.2321 13.2664 163° South  Level Estimated
07:51PM 25.1093 13.3073 163° South  Level Estimated
07:52PM 24.9865 13.3482 163° South  Level Estimated
07:53PM 24.8636 13.3890 163° South  Level Estimated
07:54PM 24.7407 13.4298 163° South  Level Estimated
07:55PM 24.6178 13.4704 163° South  Level Estimated
07:56PM 24.4950 13.5110 163° South  Level Estimated
07:57PM 24.3720 13.5515 163° South  Level Estimated
07:58PM 24.2491 13.5919 163° South  Level Estimated
07:59PM 24.1262 13.6322 163° South  Level Estimated
08:00PM 24.0033 13.6725 163° South  Level Estimated
08:01PM 23.8803 13.7127 163° South  Level Estimated
08:02PM 23.7574 13.7528 163° South  Level Estimated
08:03PM 23.6344 13.7928 163° South  Level Estimated
08:04PM 23.5114 13.8327 163° South  Level Estimated
08:05PM 23.3884 13.8726 163° South  Level Estimated
08:06PM 23.2654 13.9124 163° South  Level Estimated
08:07PM 23.1424 13.9521 163° South  Level Estimated
08:08PM 23.0194 13.9918 163° South  Level Estimated
08:09PM 22.8964 14.0314 163° South  Level Estimated
08:10PM 22.7733 14.0709 164° South  Level Estimated
08:11PM 22.6503 14.1103 164° South  Level Estimated
08:12PM 22.5272 14.1497 164° South  Level Estimated
08:13PM 22.4041 14.1890 164° South  Level Estimated
08:14PM 22.2810 14.2282 164° South  Level Estimated
08:15PM 22.1580 14.2674 164° South  Level Estimated
08:16PM 22.0349 14.3065 164° South  Level Estimated
08:17PM 21.9118 14.3455 164° South  Level Estimated
08:18PM 21.7886 14.3845 164° South  Level Estimated
08:19PM 21.6655 14.4234 164° South  Level Estimated
08:20PM 21.5424 14.4622 164° South  Level Estimated
08:21PM 21.4193 14.5010 164° South  Level Estimated
08:22PM 21.2961 14.5396 164° South  Level Estimated
08:23PM 21.1729 14.5783 164° South  Level Estimated
08:24PM 21.0498 14.6168 164° South  Level Estimated
08:25PM 20.9266 14.6553 164° South  Level Estimated
08:26PM 20.8034 14.6938 164° South  Level Estimated
08:27PM 20.6802 14.7322 164° South  Level Estimated
08:28PM 20.5570 14.7705 164° South  Level Estimated
08:29PM 20.4338 14.8087 164° South  Level Estimated
08:30PM 20.3106 14.8469 164° South  Level Estimated
08:31PM 20.1873 14.8850 164° South  Level Estimated
08:32PM 20.0641 14.9231 164° South  Level Estimated
08:33PM 19.9409 14.9611 164° South  Level Estimated
08:34PM 19.8176 14.9991 164° South  Level Estimated
08:35PM 19.6944 15.0370 164° South  Level Estimated
08:36PM 19.5711 15.0748 164° South  Level Estimated
08:37PM 19.4478 15.1126 164° South  Level Estimated
08:38PM 19.3245 15.1503 164° South  Level Estimated
08:39PM 19.2012 15.1880 164° South  Level Estimated
08:40PM 19.0779 15.2256 164° South  Level Estimated
08:41PM 18.9546 15.2631 164° South  Level Estimated
08:42PM 18.8313 15.3006 164° South  Level Estimated
08:43PM 18.7080 15.3380 164° South  Level Estimated
08:44PM 18.5847 15.3754 164° South  Level Estimated
08:45PM 18.4613 15.4128 164° South  Level Estimated
08:46PM 18.3380 15.4500 164° South  Level Estimated
08:47PM 18.2146 15.4873 164° South  Level Estimated
08:48PM 18.0913 15.5244 164° South  Level Estimated
08:49PM 17.9679 15.5616 164° South  Level Estimated
08:50PM 17.8445 15.5986 164° South  Level Estimated
08:51PM 17.7212 15.6356 164° South  Level Estimated
08:52PM 17.5978 15.6726 164° South  Level Estimated
08:53PM 17.4744 15.7095 164° South  Level Estimated
08:54PM 17.3510 15.7464 164° South  Level Estimated
08:55PM 17.2276 15.7832 164° South  Level Estimated
08:56PM 17.1042 15.8200 164° South  Level Estimated
08:57PM 16.9807 15.8567 164° South  Level Estimated
08:58PM 16.8573 15.8933 164° South  Level Estimated
08:59PM 16.7339 15.9300 164° South  Level Estimated
09:00PM 16.6105 15.9665 164° South  Level Estimated
09:01PM 16.4870 16.0031 164° South  Level Estimated
09:02PM 16.3636 16.0395 164° South  Level Estimated
09:03PM 16.2401 16.0760 164° South  Level Estimated
09:04PM 16.1166 16.1124 164° South  Level Estimated
09:05PM 15.9932 16.1487 164° South  Level Estimated
09:06PM 15.8697 16.1850 164° South  Level Estimated
09:07PM 15.7462 16.2213 164° South  Level Estimated
09:08PM 15.6227 16.2575 164° South  Level Estimated
09:09PM 15.4992 16.2936 164° South  Level Estimated
09:10PM 15.3757 16.3298 164° South  Level Estimated
09:11PM 15.2522 16.3658 164° South  Level Estimated
09:12PM 15.1287 16.4019 164° South  Level Estimated
09:13PM 15.0052 16.4379 164° South  Level Estimated
09:14PM 14.8817 16.4738 164° South  Level Estimated
09:15PM 14.7581 16.5097 164° South  Level Estimated
09:16PM 14.6346 16.5456 164° South  Level Estimated
09:17PM 14.5111 16.5814 164° South  Level Estimated
09:18PM 14.3875 16.6172 164° South  Level Estimated
09:19PM 14.2640 16.6530 164° South  Level Estimated
09:20PM 14.1404 16.6887 164° South  Level Estimated
09:21PM 14.0168 16.7243 164° South  Level Estimated
09:22PM 13.8933 16.7600 164° South  Level Estimated
09:23PM 13.7697 16.7956 164° South  Level Estimated
09:24PM 13.6461 16.8311 164° South  Level Estimated
09:25PM 13.5225 16.8667 164° South  Level Estimated
09:26PM 13.3989 16.9021 164° South  Level Estimated
09:27PM 13.2754 16.9376 164° South  Level Estimated
09:28PM 13.1518 16.9730 164° South  Level Estimated
09:29PM 13.0282 17.0084 164° South  Level Estimated
09:30PM 12.9045 17.0437 164° South  Level Estimated
09:31PM 12.7809 17.0790 164° South  Level Estimated
09:32PM 12.6573 17.1143 164° South  Level Estimated
09:33PM 12.5337 17.1495 164° South  Level Estimated
09:34PM 12.4101 17.1847 164° South  Level Estimated
09:35PM 12.2865 17.2199 164° South  Level Estimated
09:36PM 12.1628 17.2551 164° South  Level Estimated
09:37PM 12.0392 17.2902 164° South  Level Estimated
09:38PM 11.9155 17.3252 164° South  Level Estimated
09:39PM 11.7919 17.3603 164° South  Level Estimated
09:40PM 11.6682 17.3953 165° South  Level Estimated
09:41PM 11.5446 17.4303 165° South  Level Estimated
09:42PM 11.4209 17.4652 165° South  Level Estimated
09:43PM 11.2973 17.5001 165° South  Level Estimated
09:44PM 11.1736 17.5350 165° South  Level Estimated
09:45PM 11.0499 17.5699 165° South  Level Estimated
09:46PM 10.9262 17.6047 165° South  Level Estimated
09:47PM 10.8026 17.6395 165° South  Level Estimated
09:48PM 10.6789 17.6743 165° South  Level Estimated
09:49PM 10.5552 17.7090 165° South  Level Estimated
09:50PM 10.4315 17.7437 165° South  Level Estimated
09:51PM 10.3078 17.7784 165° South  Level Estimated
09:52PM 10.1841 17.8131 165° South  Level Estimated
09:53PM 10.0604 17.8477 165° South  Level Estimated
09:54PM 9.9367 17.8823 165° South  Level Estimated
09:55PM 9.8130 17.9169 165° South  Level Estimated
09:56PM 9.6893 17.9515 165° South  Level Estimated
09:57PM 9.5655 17.9860 165° South  Level Estimated
09:58PM 9.4418 18.0205 165° South  Level Estimated
09:59PM 9.3181 18.0550 165° South  Level Estimated
10:00PM 9.1944 18.0894 165° South  Level Estimated
10:01PM 9.0707 18.1238 165° South  Level Estimated
10:02PM 8.9469 18.1583 165° South  Level Estimated
10:03PM 8.8232 18.1926 165° South  Level Estimated
10:04PM 8.6994 18.2270 165° South  Level Estimated
10:05PM 8.5757 18.2613 165° South  Level Estimated
10:06PM 8.4520 18.2957 165° South  Level Estimated
10:07PM 8.3282 18.3299 165° South  Level Estimated
10:08PM 8.2044 18.3642 165° South  Level Estimated
10:09PM 8.0807 18.3985 165° South  Level Estimated
10:10PM 7.9569 18.4327 165° South  Level Estimated
10:11PM 7.8332 18.4669 165° South  Level Estimated
10:12PM 7.7094 18.5011 165° South  Level Estimated
10:13PM 7.5856 18.5353 165° South  Level Estimated
10:14PM 7.4619 18.5694 165° South  Level Estimated
10:15PM 7.3381 18.6035 165° South  Level Estimated
10:16PM 7.2143 18.6376 165° South  Level Estimated
10:17PM 7.0906 18.6717 165° South  Level Estimated
10:18PM 6.9668 18.7058 165° South  Level Estimated
10:19PM 6.8430 18.7399 165° South  Level Estimated
10:20PM 6.7192 18.7739 165° South  Level Estimated
10:21PM 6.5954 18.8079 165° South  Level Estimated
10:22PM 6.4716 18.8419 165° South  Level Estimated
10:23PM 6.3478 18.8759 165° South  Level Estimated
10:24PM 6.2241 18.9099 165° South  Level Estimated
10:25PM 6.1003 18.9438 165° South  Level Estimated
10:26PM 5.9765 18.9778 165° South  Level Estimated
10:27PM 5.8527 19.0117 165° South  Level Estimated
10:28PM 5.7289 19.0456 165° South  Level Estimated
10:29PM 5.6051 19.0795 165° South  Level Estimated
10:30PM 5.4813 19.1134 165° South  Level Estimated
10:31PM 5.3575 19.1472 165° South  Level Estimated
10:32PM 5.2337 19.1811 165° South  Level Estimated
10:33PM 5.1098 19.2149 165° South  Level Estimated
10:34PM 4.9860 19.2487 165° South  Level Estimated
10:35PM 4.8622 19.2826 165° South  Level Estimated
10:36PM 4.7384 19.3164 165° South  Level Estimated
10:37PM 4.6146 19.3501 165° South  Level Estimated
10:38PM 4.4908 19.3839 165° South  Level Estimated
10:39PM 4.3669 19.4177 165° South  Level Estimated
10:40PM 4.2431 19.4514 165° South  Level Estimated
10:41PM 4.1193 19.4852 165° South  Level Estimated
10:42PM 3.9955 19.5189 165° South  Level Estimated
10:43PM 3.8716 19.5526 165° South  Level Estimated
10:44PM 3.7478 19.5863 165° South  Level Estimated
10:45PM 3.6240 19.6200 165° South  Level Estimated
10:46PM 3.5002 19.6537 165° South  Level Estimated
10:47PM 3.3763 19.6874 165° South  Level Estimated
10:48PM 3.2525 19.7211 165° South  Level Estimated
10:49PM 3.1287 19.7547 165° South  Level Estimated
10:50PM 3.0048 19.7884 165° South  Level Estimated
10:51PM 2.8810 19.8221 165° South  Level Estimated
10:52PM 2.7572 19.8557 165° South  Level Estimated
10:53PM 2.6333 19.8893 165° South  Level Estimated
10:54PM 2.5095 19.9230 165° South  Level Estimated
10:55PM 2.3856 19.9566 165° South  Level Estimated
10:56PM 2.2618 19.9902 165° South  Level Estimated
10:57PM 2.1380 20.0238 165° South  Level Estimated
10:58PM 2.0141 20.0574 165° South  Level Estimated
10:59PM 1.8903 20.0910 165° South  Level Estimated
11:00PM 1.7664 20.1246 165° South  Level Estimated
11:01PM 1.6426 20.1582 165° South  Level Estimated
11:02PM 1.5188 20.1918 165° South  Level Estimated
11:03PM 1.3949 20.2254 165° South  Level Estimated
11:04PM 1.2711 20.2590 165° South  Level Estimated
11:05PM 1.1472 20.2925 165° South  Level Estimated
11:06PM 1.0154 20.3283 165° South  Level Estimated
11:07PM 0.8835 20.3640 165° South  Level Estimated
11:08PM 0.7516 20.3998 165° South  Level Estimated
11:09PM 0.6198 20.4355 165° South  Level Estimated
11:10PM 0.4879 20.4713 165° South  Level Estimated
11:11PM 0.3561 20.5070 165° South  Level Estimated
11:12PM 0.2242 20.5427 165° South  Level Estimated
11:13PM 0.0923 20.5785 165° South  Level Estimated
11:14PM -0.0395 20.6142 165° South  Level Estimated
11:15PM -0.1714 20.6499 165° South  Level Estimated
11:16PM -0.3032 20.6856 165° South  Level Estimated
11:17PM -0.4351 20.7214 165° South  Level Estimated
11:18PM -0.5670 20.7571 165° South  Level Estimated
11:19PM -0.6988 20.7929 165° South  Level Estimated
11:20PM -0.8307 20.8286 165° South  Level Estimated
11:21PM -0.9625 20.8643 165° South  Level Estimated
11:22PM -1.0944 20.9001 165° South  Level Estimated
11:23PM -1.2263 20.9359 165° South  Level Estimated
11:24PM -1.3581 20.9716 165° South  Level Estimated
11:25PM -1.4900 21.0074 165° South  Level Estimated
11:26PM -1.6218 21.0431 165° South  Level Estimated
11:27PM -1.7537 21.0789 165° South  Level Estimated
11:28PM -1.8855 21.1147 165° South  Level Estimated
11:29PM -2.0174 21.1504 165° South  Level Estimated
11:30PM -2.1492 21.1862 165° South  Level Estimated
11:31PM -2.2811 21.2220 165° South  Level Estimated
11:32PM -2.4129 21.2578 165° South  Level Estimated
11:33PM -2.5448 21.2936 165° South  Level Estimated
11:34PM -2.6766 21.3294 165° South  Level Estimated
11:35PM -2.8085 21.3652 165° South  Level Estimated
11:36PM -2.9403 21.4010 165° South  Level Estimated
11:37PM -3.0722 21.4369 165° South  Level Estimated
11:38PM -3.2040 21.4727 165° South  Level Estimated
11:39PM -3.3359 21.5086 165° South  Level Estimated
11:40PM -3.4677 21.5444 165° South  Level Estimated
11:41PM -3.5996 21.5803 165° South  Level Estimated
11:42PM -3.7314 21.6162 165° South  Level Estimated
11:43PM -3.8632 21.6521 165° South  Level Estimated
11:44PM -3.9951 21.6880 165° South  Level Estimated
11:45PM -4.1269 21.7239 165° South  Level Estimated
11:46PM -4.2587 21.7598 165° South  Level Estimated
11:47PM -4.3906 21.7957 165° South  Level Estimated
11:48PM -4.5224 21.8317 165° South  Level Estimated
11:49PM -4.6542 21.8676 165° South  Level Estimated
11:50PM -4.7860 21.9036 165° South  Level Estimated
11:51PM -4.9179 21.9396 165° South  Level Estimated
11:52PM -5.0497 21.9756 165° South  Level Estimated
11:53PM -5.1815 22.0117 165° South  Level Estimated
11:54PM -5.3133 22.0477 165° South  Level Estimated
11:55PM -5.4451 22.0837 165° South  Level Estimated
11:56PM -5.5770 22.1198 165° South  Level Estimated
11:57PM -5.7088 22.1559 165° South  Level Estimated
11:58PM -5.8406 22.1920 165° South  Level Estimated
11:59PM -5.9724 22.2281 165° South  Level Estimated
12:00AM -6.1042 22.2642 165° South  Level Estimated
12:01AM -6.2360 22.3004 165° South  Level Estimated
12:02AM -6.3678 22.3366 165° South  Level Estimated
12:03AM -6.4996 22.3727 165° South  Level Estimated
12:04AM -6.6314 22.4090 165° South  Level Estimated
12:05AM -6.7632 22.4452 165° South  Level Estimated
12:06AM -6.8950 22.4814 165° South  Level Estimated
12:07AM -7.0268 22.5177 165° South  Level Estimated
12:08AM -7.1585 22.5540 165° South  Level Estimated
12:09AM -7.2903 22.5903 165° South  Level Estimated
12:10AM -7.4221 22.6266 165° South  Level Estimated
12:11AM -7.5539 22.6630 165° South  Level Estimated
12:12AM -7.6856 22.6994 165° South  Level Estimated
12:13AM -7.8174 22.7358 165° South  Level Estimated
12:14AM -7.9492 22.7722 165° South  Level Estimated
12:15AM -8.0809 22.8086 165° South  Level Estimated
12:16AM -8.2127 22.8451 165° South  Level Estimated
12:17AM -8.3445 22.8816 165° South  Level Estimated
12:18AM -8.4762 22.9181 165° South  Level Estimated
12:19AM -8.6080 22.9546 165° South  Level Estimated
12:20AM -8.7397 22.9912 165° South  Level Estimated
12:21AM -8.8715 23.0278 165° South  Level Estimated
12:22AM -9.0032 23.0644 165° South  Level Estimated
12:23AM -9.1349 23.1010 165° South  Level Estimated
12:24AM -9.2667 23.1377 165° South  Level Estimated
12:25AM -9.3984 23.1744 165° South  Level Estimated
12:26AM -9.5301 23.2111 165° South  Level Estimated
12:27AM -9.6618 23.2479 165° South  Level Estimated
12:28AM -9.7935 23.2847 165° South  Level Estimated
12:29AM -9.9253 23.3215 165° South  Level Estimated
12:30AM -10.0570 23.3583 165° South  Level Estimated
12:31AM -10.1887 23.3952 165° South  Level Estimated
12:32AM -10.3204 23.4321 165° South  Level Estimated
12:33AM -10.4521 23.4690 165° South  Level Estimated
12:34AM -10.5838 23.5060 165° South  Level Estimated
12:35AM -10.7155 23.5430 165° South  Level Estimated
12:36AM -10.8471 23.5800 165° South  Level Estimated
12:37AM -10.9788 23.6171 165° South  Level Estimated
12:38AM -11.1105 23.6542 165° South  Level Estimated
12:39AM -11.2422 23.6913 165° South  Level Estimated
12:40AM -11.3738 23.7285 165° South  Level Estimated
12:41AM -11.5055 23.7657 165° South  Level Estimated
12:42AM -11.6371 23.8029 165° South  Level Estimated
12:43AM -11.7688 23.8402 165° South  Level Estimated
12:44AM -11.9004 23.8775 165° South  Level Estimated
12:45AM -12.0321 23.9148 164° South  Level Estimated
12:46AM -12.1637 23.9522 164° South  Level Estimated
12:47AM -12.2954 23.9896 164° South  Level Estimated
12:48AM -12.4270 24.0271 164° South  Level Estimated
12:49AM -12.5586 24.0646 164° South  Level Estimated
12:50AM -12.6902 24.1021 164° South  Level Estimated
12:51AM -12.8218 24.1397 164° South  Level Estimated
12:52AM -12.9534 24.1773 164° South  Level Estimated
12:53AM -13.0850 24.2149 164° South  Level Estimated
12:54AM -13.2166 24.2526 164° South  Level Estimated
12:55AM -13.3482 24.2903 164° South  Level Estimated
12:56AM -13.4798 24.3281 164° South  Level Estimated
12:57AM -13.6114 24.3659 164° South  Level Estimated
12:58AM -13.7430 24.4037 164° South  Level Estimated
12:59AM -13.8745 24.4416 164° South  Level Estimated
01:00AM -14.0061 24.4796 164° South  Level Estimated
01:01AM -14.1376 24.5175 164° South  Level Estimated
01:02AM -14.2692 24.5556 164° South  Level Estimated
01:03AM -14.4007 24.5936 164° South  Level Estimated
01:04AM -14.5323 24.6318 164° South  Level Estimated
01:05AM -14.6638 24.6699 164° South  Level Estimated
01:06AM -14.7953 24.7081 164° South  Level Estimated
01:07AM -14.9268 24.7464 164° South  Level Estimated
01:08AM -15.0583 24.7847 164° South  Level Estimated
01:09AM -15.1898 24.8230 164° South  Level Estimated
01:10AM -15.3213 24.8614 164° South  Level Estimated
01:11AM -15.4528 24.8998 164° South  Level Estimated
01:12AM -15.5843 24.9383 164° South  Level Estimated
01:13AM -15.7158 24.9769 164° South  Level Estimated
01:14AM -15.8473 25.0154 164° South  Level Estimated
01:15AM -15.9787 25.0541 164° South  Level Estimated
01:16AM -16.1102 25.0928 164° South  Level Estimated
01:17AM -16.2416 25.1315 164° South  Level Estimated
01:18AM -16.3731 25.1703 164° South  Level Estimated
01:19AM -16.5045 25.2092 164° South  Level Estimated
01:20AM -16.6359 25.2481 164° South  Level Estimated
01:21AM -16.7674 25.2870 164° South  Level Estimated
01:22AM -16.8988 25.3260 164° South  Level Estimated
01:23AM -17.0302 25.3651 164° South  Level Estimated
01:24AM -17.1616 25.4042 164° South  Level Estimated
01:25AM -17.2930 25.4433 164° South  Level Estimated
01:26AM -17.4244 25.4826 164° South  Level Estimated
01:27AM -17.5557 25.5219 164° South  Level Estimated
01:28AM -17.6871 25.5612 164° South  Level Estimated
01:29AM -17.8185 25.6006 164° South  Level Estimated
01:30AM -17.9498 25.6400 164° South  Level Estimated
01:31AM -18.0812 25.6796 164° South  Level Estimated
01:32AM -18.2125 25.7191 164° South  Level Estimated
01:33AM -18.3438 25.7588 164° South  Level Estimated
01:34AM -18.4751 25.7984 164° South  Level Estimated
01:35AM -18.6065 25.8382 164° South  Level Estimated
01:36AM -18.7378 25.8780 164° South  Level Estimated
01:37AM -18.8691 25.9179 164° South  Level Estimated
01:38AM -19.0004 25.9578 164° South  Level Estimated
01:39AM -19.1316 25.9978 164° South  Level Estimated
01:40AM -19.2629 26.0379 164° South  Level Estimated
01:41AM -19.3942 26.0780 164° South  Level Estimated
01:42AM -19.5254 26.1182 164° South  Level Estimated
01:43AM -19.6567 26.1585 164° South  Level Estimated
01:44AM -19.7879 26.1988 164° South  Level Estimated
01:45AM -19.9191 26.2392 164° South  Level Estimated
01:46AM -20.0503 26.2797 164° South  Level Estimated
01:47AM -20.1815 26.3202 164° South  Level Estimated
01:48AM -20.3127 26.3608 164° South  Level Estimated
01:49AM -20.4439 26.4014 164° South  Level Estimated
01:50AM -20.5751 26.4422 164° South  Level Estimated
01:50AM -23.0410 26.1360 164° South 515 593 39,000  Level FlightAware
01:51AM -20.7063 26.4830 164° South  Level Estimated
01:51AM -23.1260 26.1760 157° South 515 593 39,000  Level FlightAware
01:51AM -23.2000 26.2120 156° South 515 593 39,000  Level FlightAware
01:52AM -23.3210 26.2650 158° South 518 596 39,000  Level FlightAware
01:53AM -23.4080 26.3060 157° South 516 594 39,000  Level FlightAware
01:53AM -23.5050 26.3510 157° South 518 596 39,000  Level FlightAware
01:54AM -23.5940 26.3920 157° South 519 597 39,000  Level FlightAware
01:55AM -23.6940 26.4390 157° South 520 598 39,000  Level FlightAware
01:56AM -23.7860 26.4820 157° South 521 600 39,000  Level FlightAware
01:56AM -23.8750 26.5240 157° South 521 600 39,000  Level FlightAware
01:57AM -23.9730 26.5700 157° South 520 598 39,000  Level FlightAware
01:58AM -24.0620 26.6130 156° South 523 602 39,000  Level FlightAware
01:58AM -24.1630 26.6640 155° Southeast 524 603 39,000  Level FlightAware
01:59AM -24.2500 26.7070 156° South 524 603 39,000  Level FlightAware
02:00AM -24.3390 26.7510 156° South 524 603 39,000  Level FlightAware
02:00AM -24.4370 26.8000 156° South 523 602 39,000 -540 Level FlightAware
02:01AM -24.5250 26.8430 156° South 524 603 38,300 -2,220 Descending FlightAware
02:02AM -24.6260 26.8930 156° South 535 616 35,900 -3,120 Descending FlightAware
02:03AM -24.7130 26.9520 148° Southeast 557 641 33,900 -2,400 Descending FlightAware
02:03AM -24.7840 27.0340 134° Southeast 546 628 32,700 -1,980 Descending FlightAware
02:04AM -24.8600 27.1220 134° Southeast 535 616 31,100 -1,920 Descending FlightAware
02:05AM -24.9280 27.1960 135° Southeast 521 600 30,000 -1,800 Descending FlightAware
02:05AM -25.0040 27.2820 134° Southeast 507 583 28,600 -1,560 Descending FlightAware
02:06AM -25.0700 27.3560 135° Southeast 484 557 27,800 -1,380 Descending FlightAware
02:07AM -25.1320 27.4250 135° Southeast 470 541 26,800 -1,680 Descending FlightAware
02:07AM -25.1990 27.5000 135° Southeast 456 525 25,500 -1,920 Descending FlightAware
02:08AM -25.2560 27.5650 134° Southeast 445 512 24,100 -2,220 Descending FlightAware
02:09AM -25.3210 27.6390 134° Southeast 433 498 22,400 -1,980 Descending FlightAware
02:10AM -25.3630 27.7090 124° Southeast 421 484 21,300 -1,800 Descending FlightAware
02:10AM -25.4030 27.7870 120° Southeast 413 475 20,000 -1,740 Descending FlightAware
02:11AM -25.4430 27.8650 120° Southeast 399 459 18,900 -1,740 Descending FlightAware
02:12AM -25.4820 27.9360 121° Southeast 392 451 17,600 -2,220 Descending FlightAware
02:12AM -25.5280 27.9950 131° Southeast 383 441 16,000 -2,700 Descending FlightAware
02:13AM -25.5810 28.0590 133° Southeast 364 419 13,800 -2,400 Descending FlightAware
02:14AM -25.6260 28.1140 132° Southeast 327 376 12,600 -1,500 Descending FlightAware
02:14AM -25.6680 28.1650 132° Southeast 310 357 11,700 -1,200 Descending FlightAware
02:15AM -25.7120 28.2040 141° Southeast 299 344 10,900 -900 Descending FlightAware
02:16AM -25.7590 28.2340 150° Southeast 278 320 10,500 -900 Descending FlightAware
02:16AM -25.7930 28.2550 151° Southeast 274 315 9,900 -1,140 Descending FlightAware
02:17AM -25.8250 28.2750 151° Southeast 271 312 9,400 -1,020 Descending FlightAware
02:17AM -25.8520 28.2900 153° Southeast 269 310 9,000 -480 Descending FlightAware
02:18AM -25.8890 28.3050 160° South 251 289 9,000  Level FlightAware
02:18AM -25.9040 28.3110 160° South 237 273 9,000  Level FlightAware
02:18AM -25.9290 28.3190 164° South 205 236 9,000 -360 Level FlightAware
02:19AM -25.9570 28.3130 191° South 197 227 8,700 -840 Descending FlightAware
02:19AM -25.9830 28.3040 197° South 192 221 8,200 -1,020 Descending FlightAware
02:20AM -26.0030 28.2980 195° South 188 216 7,800 -1,080 Descending FlightAware
02:20AM -26.0170 28.2940 194° South 183 211 7,500 -1,080 Descending FlightAware
02:20AM -26.0360 28.2880 196° South 181 208 7,100 -900 Descending FlightAware
02:21AM -26.0490 28.2840 195° South 182 209 6,900 -960 Descending FlightAware
02:21AM -26.0720 28.2770 195° South 166 191 6,400 -900 Descending FlightAware
02:22AM -26.0890 28.2710 198° South 151 174 6,100 -780 Descending FlightAware
02:22AM -26.1010 28.2680 193° South 150 173 5,900 -720 Descending FlightAware
02:23AM -26.1350 28.2570 196° South 148 170 5,200 -540 Descending FlightAware
02:23AM -26.1500 28.2530 193° South 105 121 5,200  Level FlightAware